IKW weather

Jack Barstow Airport
Midland, Michigan, United States

Public forecast

Using degrees Fahrenheit for public forecast. Weather courtesy of forecast.io.

METAR (pilot weather report)

Retrieved 2019/09/16 15:38 UTC (0 seconds ago):

KIKW 161538Z AUTO 00000KT 10SM OVC042 21/17 A3012 RMK AO2 T02100166

TAF (pilot weather forecast)

Closest forecast is MBS International Airport, 11.0 nm (20.4 km) SE. Retrieved 2019/09/16 12:22 UTC (3 hours ago):

TAF KMBS 161120Z 1612/1712 VRB03KT 3SM BR OVC003 TEMPO 1612/1614 5SM BR SCT003 FM161400 02006KT P6SM BKN022 OVC035 FM161800 04010KT P6SM BKN040 FM162300 06006KT P6SM SCT035 FM170900 02003KT 6SM BR SCT030